Time;durP1;ratioP1;P1;durP2;ratioP2;P2;SDS_P1;SDS_P2;PMS_P1;PMS_P2;Temp;Humidity;BMP_temperature;BMP_pressure;BME280_temperature;BME280_humidity;BME280_pressure;Samples;Min_cycle;Max_cycle;Signal;HPM_P1;HPM_P2
2021/12/20 00:02:14;;;;;;;;;0.00;0.00;;;;;18.04;61.92;102968.97;5053702;28;8770;-65
2021/12/20 00:04:40;;;;;;;;;0.00;0.00;;;;;18.04;61.79;102966.31;5052400;28;9654;-65
2021/12/20 00:07:05;;;;;;;;;0.00;0.00;;;;;18.04;62.03;102968.06;5053557;28;8782;-65
2021/12/20 00:09:30;;;;;;;;;0.67;0.00;;;;;18.04;62.03;102962.78;5053237;28;8764;-64
2021/12/20 00:11:56;;;;;;;;;0.00;0.00;;;;;17.92;61.76;102941.38;5052452;28;8877;-64
2021/12/20 00:14:21;;;;;;;;;0.00;0.00;;;;;18.01;61.96;102960.97;5053293;28;8765;-65
2021/12/20 00:16:49;;;;;;;;;0.00;0.00;;;;;18.03;61.75;102966.31;5052955;28;8762;-65
2021/12/20 00:19:15;;;;;;;;;0.00;0.00;;;;;18.03;61.62;102964.56;5052297;28;8758;-65
2021/12/20 00:21:50;;;;;;;;;0.00;0.00;;;;;18.03;61.76;102972.50;5052827;28;8894;-64
2021/12/20 00:24:17;;;;;;;;;0.00;0.00;;;;;18.03;62.07;102969.84;5053148;28;8773;-65
2021/12/20 00:26:48;;;;;;;;;0.00;0.00;;;;;18.02;61.83;102970.69;5051995;28;8789;-65
2021/12/20 00:29:13;;;;;;;;;0.00;0.00;;;;;18.03;61.82;102961.03;5051980;28;9502;-65
2021/12/20 00:31:38;;;;;;;;;0.00;0.00;;;;;18.03;61.52;102961.91;5052015;28;8832;-65
2021/12/20 00:34:06;;;;;;;;;0.00;0.00;;;;;18.00;61.79;102953.88;5052770;28;8773;-65
2021/12/20 00:36:32;;;;;;;;;0.00;0.00;;;;;18.03;61.59;102963.66;5052679;28;8819;-64
2021/12/20 00:41:41;;;;;;;;;0.00;0.00;;;;;17.98;61.59;102947.69;5052365;28;8773;-65
2021/12/20 00:44:07;;;;;;;;;0.00;0.00;;;;;18.01;61.91;102954.78;5052954;28;8860;-65
2021/12/20 00:46:32;;;;;;;;;0.00;0.00;;;;;18.00;61.57;102950.34;5052019;28;8793;-64
2021/12/20 00:48:57;;;;;;;;;0.00;0.00;;;;;18.00;61.69;102953.88;5052542;28;8769;-66
2021/12/20 00:51:26;;;;;;;;;0.33;0.33;;;;;18.02;61.69;102948.66;5052574;28;8765;-65
2021/12/20 00:53:51;;;;;;;;;0.33;0.33;;;;;18.00;61.90;102938.03;5051649;28;8765;-66
2021/12/20 00:56:16;;;;;;;;;0.00;0.00;;;;;18.01;61.76;102933.63;5052461;28;8890;-65
2021/12/20 00:58:42;;;;;;;;;0.00;0.00;;;;;18.01;61.74;102933.63;5052076;28;8774;-65
2021/12/20 01:01:09;;;;;;;;;0.00;0.00;;;;;17.96;61.63;102935.31;5051657;28;9684;-65
2021/12/20 01:03:34;;;;;;;;;1.50;0.00;;;;;18.01;61.66;102952.16;5052380;28;8827;-64
2021/12/20 01:06:01;;;;;;;;;0.00;0.00;;;;;18.01;61.78;102952.16;5052152;28;8798;-65
2021/12/20 01:08:30;;;;;;;;;0.00;0.00;;;;;17.97;61.31;102937.97;5051690;28;8904;-64
2021/12/20 01:10:56;;;;;;;;;0.67;0.67;;;;;18.00;61.24;102943.31;5052010;28;8761;-65
2021/12/20 01:13:28;;;;;;;;;0.00;0.00;;;;;18.00;61.75;102942.41;5052025;28;8851;-64
2021/12/20 01:15:57;;;;;;;;;0.00;0.00;;;;;17.95;61.25;102920.28;5051014;28;9689;-64
2021/12/20 01:18:22;;;;;;;;;0.50;0.50;;;;;18.01;61.38;102937.19;5052211;28;8808;-64
2021/12/20 01:20:48;;;;;;;;;1.00;0.00;;;;;17.97;61.56;102931.78;5051600;28;8794;-64
2021/12/20 01:23:14;;;;;;;;;0.00;0.00;;;;;17.98;61.58;102934.47;5051482;28;8860;-63
2021/12/20 01:25:40;;;;;;;;;0.00;0.00;;;;;17.97;61.37;102937.06;5051755;28;8797;-64
2021/12/20 01:28:06;;;;;;;;;0.50;0.00;;;;;18.00;61.04;102939.78;5051156;28;8899;-64
2021/12/20 01:30:32;;;;;;;;;0.67;0.33;;;;;17.99;61.17;102938.00;5051838;28;8793;-64
2021/12/20 01:32:58;;;;;;;;;0.00;0.00;;;;;17.97;61.13;102932.69;5051579;28;8848;-64
2021/12/20 01:35:25;;;;;;;;;0.00;0.00;;;;;17.98;61.22;102936.22;5050727;28;8920;-64
2021/12/20 01:37:52;;;;;;;;;0.00;0.00;;;;;18.00;61.31;102932.75;5051385;28;8866;-64
2021/12/20 01:40:19;;;;;;;;;0.75;0.75;;;;;17.99;61.00;102930.09;5051452;28;8816;-64
2021/12/20 01:42:46;;;;;;;;;1.00;1.00;;;;;17.99;61.28;102930.09;5049818;28;8782;-64
2021/12/20 01:45:18;;;;;;;;;1.00;0.00;;;;;18.00;61.14;102939.78;5051388;28;8778;-64
2021/12/20 01:47:48;;;;;;;;;0.00;0.00;;;;;18.02;60.89;102946.00;5051260;28;9037;-64
2021/12/20 01:50:21;;;;;;;;;0.00;0.00;;;;;17.96;60.95;102933.53;5050838;28;8774;-65
2021/12/20 01:52:47;;;;;;;;;0.00;0.00;;;;;17.96;61.07;102936.16;5051301;28;8904;-64
2021/12/20 01:55:21;;;;;;;;;1.00;0.00;;;;;17.97;60.97;102940.59;5051110;28;8869;-65
2021/12/20 01:57:50;;;;;;;;;0.50;0.50;;;;;17.98;61.02;102938.84;5050138;28;8770;-65
2021/12/20 02:00:23;;;;;;;;;0.00;0.00;;;;;17.98;60.96;102946.78;5051057;28;8797;-64
2021/12/20 02:02:54;;;;;;;;;1.00;1.00;;;;;17.97;60.55;102943.25;5050995;28;8849;-64
2021/12/20 02:05:24;;;;;;;;;0.50;0.50;;;;;17.99;61.00;102932.72;5050484;28;8850;-65
2021/12/20 02:08:01;;;;;;;;;0.75;0.75;;;;;17.98;60.80;102928.28;5050824;28;8880;-65
2021/12/20 02:10:29;;;;;;;;;0.00;0.00;;;;;17.97;60.78;102931.78;5050395;28;8790;-65
2021/12/20 02:12:55;;;;;;;;;1.00;1.00;;;;;17.95;60.84;102937.03;5050784;28;8793;-65
2021/12/20 02:15:21;;;;;;;;;0.00;0.00;;;;;17.99;60.58;102930.09;5051236;28;8766;-65
2021/12/20 02:17:46;;;;;;;;;0.00;0.00;;;;;17.99;60.49;102928.34;5050025;28;9738;-65
2021/12/20 02:20:26;;;;;;;;;0.00;0.00;;;;;17.98;60.80;102947.69;5050980;28;8802;-65
2021/12/20 02:22:56;;;;;;;;;0.00;0.00;;;;;17.98;60.59;102936.22;5050503;28;8855;-65
2021/12/20 02:25:23;;;;;;;;;1.00;1.00;;;;;17.96;60.33;102925.59;5050418;28;8947;-65
2021/12/20 02:27:48;;;;;;;;;0.75;0.75;;;;;17.96;60.34;102930.88;5050664;28;8876;-65
2021/12/20 02:38:26;;;;;;;;;0.00;0.00;;;;;17.95;60.44;102926.47;5050074;28;8842;-65
2021/12/20 02:41:00;;;;;;;;;0.00;0.00;;;;;17.95;60.56;102923.84;5050275;28;8858;-65
2021/12/20 02:43:27;;;;;;;;;0.25;0.25;;;;;17.95;60.57;102922.94;5051137;28;8790;-65
2021/12/20 02:45:57;;;;;;;;;0.00;0.00;;;;;17.95;60.55;102913.25;5049874;28;8774;-65
2021/12/20 02:48:25;;;;;;;;;0.00;0.00;;;;;17.94;60.57;102913.22;5050884;28;8782;-65
2021/12/20 02:50:53;;;;;;;;;1.00;0.00;;;;;17.94;60.54;102919.38;5050194;28;8812;-65
2021/12/20 02:53:18;;;;;;;;;1.00;1.00;;;;;17.97;60.64;102915.91;5049773;28;9532;-65
2021/12/20 02:55:47;;;;;;;;;0.00;0.00;;;;;17.95;60.04;102912.38;5053968;28;8988;-65
2021/12/20 02:58:12;;;;;;;;;0.00;0.00;;;;;17.95;60.49;102907.97;5054541;28;9516;-65
2021/12/20 03:00:37;;;;;;;;;0.00;0.00;;;;;17.96;60.32;102912.38;5053931;28;8801;-65
2021/12/20 03:03:03;;;;;;;;;0.00;0.00;;;;;17.96;60.07;102915.03;5054406;28;8790;-65
2021/12/20 03:05:28;;;;;;;;;2.00;0.00;;;;;17.88;60.24;102904.25;5054322;28;9574;-65
2021/12/20 03:07:55;;;;;;;;;2.00;0.67;;;;;17.90;60.19;102906.97;5053546;28;8797;-65
2021/12/20 03:10:21;;;;;;;;;0.00;0.00;;;;;17.93;60.48;102906.13;5054162;28;8826;-64
2021/12/20 03:12:50;;;;;;;;;1.00;0.00;;;;;17.88;60.16;102904.25;5054268;28;8932;-64
2021/12/20 03:15:21;;;;;;;;;0.00;0.00;;;;;17.94;60.13;102905.28;5053881;28;8844;-65
2021/12/20 03:17:47;;;;;;;;;1.33;1.33;;;;;17.92;60.05;102907.88;5054098;28;8781;-65
2021/12/20 03:20:15;;;;;;;;;1.00;1.00;;;;;17.95;60.06;102909.72;5054411;28;9069;-65
2021/12/20 03:22:42;;;;;;;;;0.00;0.00;;;;;17.95;60.22;102915.00;5053350;28;8802;-65
2021/12/20 03:25:08;;;;;;;;;0.67;0.00;;;;;17.96;60.18;102916.81;5054483;28;8789;-65
2021/12/20 03:27:33;;;;;;;;;0.00;0.00;;;;;17.94;60.10;102902.63;5053242;28;8937;-65
2021/12/20 03:29:59;;;;;;;;;1.00;0.00;;;;;17.89;59.98;102907.81;5053632;28;8773;-65
2021/12/20 03:32:24;;;;;;;;;2.00;2.00;;;;;17.93;59.73;102917.59;5053925;28;8778;-65
2021/12/20 03:34:49;;;;;;;;;0.00;0.00;;;;;17.92;59.93;102915.78;5052869;28;8852;-65
2021/12/20 03:37:14;;;;;;;;;0.00;0.00;;;;;17.93;59.98;102912.31;5053807;28;8770;-65
2021/12/20 03:39:40;;;;;;;;;0.00;0.00;;;;;17.94;59.81;102908.81;5053704;28;8802;-65
2021/12/20 03:42:06;;;;;;;;;1.00;1.00;;;;;17.92;60.16;102907.00;5053358;28;8769;-65
2021/12/20 03:44:38;;;;;;;;;0.75;0.00;;;;;17.92;59.84;102907.88;5053970;28;8770;-65
2021/12/20 03:47:03;;;;;;;;;0.67;0.00;;;;;17.92;59.74;102899.09;5053499;28;8762;-65
2021/12/20 03:49:29;;;;;;;;;0.00;0.00;;;;;17.91;59.66;102899.94;5053113;28;8855;-65
2021/12/20 03:51:54;;;;;;;;;0.00;0.00;;;;;17.86;59.85;102898.06;5053353;28;8792;-65
2021/12/20 03:54:19;;;;;;;;;0.00;0.00;;;;;17.90;59.88;102892.84;5053748;28;8817;-65
2021/12/20 03:56:46;;;;;;;;;1.00;0.00;;;;;17.92;59.70;102899.94;5052792;28;8790;-65
2021/12/20 03:59:11;;;;;;;;;0.33;0.33;;;;;17.91;59.79;102899.94;5053459;28;9532;-65
2021/12/20 04:01:39;;;;;;;;;0.33;0.33;;;;;17.90;59.66;102896.38;5053490;28;9079;-65
2021/12/20 04:04:05;;;;;;;;;2.33;0.00;;;;;17.88;59.61;102904.25;5052656;28;9635;-65
2021/12/20 04:06:33;;;;;;;;;0.00;0.00;;;;;17.91;59.58;102911.41;5052905;28;9017;-66
2021/12/20 04:08:59;;;;;;;;;0.00;0.00;;;;;17.92;59.85;102904.38;5053251;28;8823;-65
2021/12/20 04:11:25;;;;;;;;;0.33;0.00;;;;;17.91;59.79;102903.47;5052902;28;8836;-65
2021/12/20 04:13:50;;;;;;;;;1.33;0.00;;;;;17.90;59.54;102904.31;5052800;28;9599;-65
2021/12/20 04:16:15;;;;;;;;;0.00;0.00;;;;;17.90;59.59;102909.59;5053461;28;8762;-65
2021/12/20 04:18:40;;;;;;;;;0.00;0.00;;;;;17.91;59.52;102911.41;5052201;28;9505;-64
2021/12/20 04:21:06;;;;;;;;;0.33;0.00;;;;;17.88;59.40;102908.69;5052958;28;8820;-64
2021/12/20 04:23:31;;;;;;;;;1.00;0.00;;;;;17.88;59.40;102904.25;5053155;28;8827;-64
2021/12/20 04:26:00;;;;;;;;;3.00;1.00;;;;;17.88;59.46;102901.63;5051933;28;9509;-65
2021/12/20 04:28:25;;;;;;;;;0.00;0.00;;;;;17.91;59.26;102907.84;5053033;28;8774;-65
2021/12/20 04:30:51;;;;;;;;;2.00;0.00;;;;;17.92;59.71;102904.38;5051847;28;8889;-65
2021/12/20 04:33:16;;;;;;;;;0.00;0.00;;;;;17.89;59.43;102899.88;5052986;28;8792;-65
2021/12/20 04:35:41;;;;;;;;;0.33;0.00;;;;;17.92;59.30;102897.31;5052558;28;8813;-65
2021/12/20 04:38:08;;;;;;;;;0.00;0.00;;;;;17.87;59.42;102898.97;5052227;28;9529;-65
2021/12/20 04:40:34;;;;;;;;;0.00;0.00;;;;;17.91;59.36;102905.22;5052509;28;8907;-65
2021/12/20 04:43:00;;;;;;;;;0.33;0.00;;;;;17.90;59.43;102906.97;5052671;28;8967;-65
2021/12/20 04:45:28;;;;;;;;;0.00;0.00;;;;;17.89;59.41;102899.88;5052263;28;8844;-65
2021/12/20 04:47:54;;;;;;;;;0.00;0.00;;;;;17.91;59.54;102902.56;5052430;28;8753;-65
2021/12/20 04:50:21;;;;;;;;;0.33;0.00;;;;;17.89;59.18;102913.09;5052495;28;9641;-65
2021/12/20 04:52:47;;;;;;;;;0.00;0.00;;;;;17.88;59.58;102911.31;5051785;28;8767;-64
2021/12/20 04:55:13;;;;;;;;;0.00;0.00;;;;;17.88;59.46;102912.19;5052425;28;8862;-64
2021/12/20 04:57:40;;;;;;;;;0.00;0.00;;;;;17.90;59.16;102909.59;5052612;28;8770;-64
2021/12/20 05:00:11;;;;;;;;;0.00;0.00;;;;;17.90;59.42;102906.97;5051630;28;8919;-64
2021/12/20 05:02:37;;;;;;;;;0.33;0.33;;;;;17.88;59.67;102906.03;5052137;28;8971;-64
2021/12/20 05:05:03;;;;;;;;;0.67;0.00;;;;;17.88;58.98;102910.44;5052090;28;8855;-65
2021/12/20 05:07:29;;;;;;;;;0.00;0.00;;;;;17.86;59.20;102908.63;5051435;28;8801;-65
2021/12/20 05:10:00;;;;;;;;;1.33;1.00;;;;;17.85;59.41;102904.19;5051969;28;8785;-65
2021/12/20 05:12:26;;;;;;;;;2.00;2.00;;;;;17.88;58.94;102912.19;5052338;28;8785;-65
2021/12/20 05:14:51;;;;;;;;;0.00;0.00;;;;;17.86;59.29;102911.28;5051031;28;8961;-65
2021/12/20 05:17:16;;;;;;;;;0.67;0.67;;;;;17.88;59.04;102912.19;5051066;28;8847;-65
2021/12/20 05:19:42;;;;;;;;;0.33;0.33;;;;;17.88;59.06;102917.47;5051546;28;8770;-65
2021/12/20 05:22:08;;;;;;;;;1.33;0.00;;;;;17.77;59.14;102895.19;5051719;28;8790;-65
2021/12/20 05:24:34;;;;;;;;;1.00;0.00;;;;;17.89;58.98;102913.09;5051992;28;8766;-64
2021/12/20 05:27:00;;;;;;;;;0.00;0.00;;;;;17.86;59.01;102910.38;5051585;28;8924;-65
2021/12/20 05:29:25;;;;;;;;;0.00;0.00;;;;;17.88;59.24;102919.25;5051500;28;8762;-65
2021/12/20 05:31:51;;;;;;;;;0.00;0.00;;;;;17.86;59.21;102921.84;5051189;28;8770;-65
2021/12/20 05:34:18;;;;;;;;;0.00;0.00;;;;;17.83;58.91;102915.59;5051038;28;8769;-65
2021/12/20 05:36:43;;;;;;;;;0.00;0.00;;;;;17.88;59.03;102919.25;5051612;28;8868;-65
2021/12/20 05:39:08;;;;;;;;;0.00;0.00;;;;;17.88;59.46;102918.34;5051880;28;8754;-64
2021/12/20 05:41:36;;;;;;;;;2.67;1.33;;;;;17.88;59.27;102921.91;5050894;28;8828;-65
2021/12/20 05:44:02;;;;;;;;;0.67;0.33;;;;;17.86;58.84;102918.31;5051477;28;8766;-65
2021/12/20 05:46:27;;;;;;;;;0.67;0.67;;;;;17.87;59.03;102917.47;5051253;28;8857;-65
2021/12/20 05:48:53;;;;;;;;;0.00;0.00;;;;;17.86;59.29;102920.94;5050587;28;8785;-65
2021/12/20 05:51:18;;;;;;;;;1.50;0.50;;;;;17.85;59.05;102919.16;5051198;28;8789;-65
2021/12/20 05:53:43;;;;;;;;;1.00;1.00;;;;;17.89;58.96;102931.59;5051064;28;8844;-65
2021/12/20 05:56:09;;;;;;;;;2.00;1.00;;;;;17.87;58.95;102922.75;5050552;28;8798;-65
2021/12/20 05:58:34;;;;;;;;;0.00;0.00;;;;;17.75;58.86;102898.66;5051201;28;8766;-65
2021/12/20 06:01:00;;;;;;;;;1.00;1.00;;;;;17.87;59.01;102922.75;5050970;28;8825;-65
2021/12/20 06:03:25;;;;;;;;;0.00;0.00;;;;;17.86;59.03;102915.66;5050667;28;9614;-65
2021/12/20 06:05:50;;;;;;;;;2.33;0.67;;;;;17.85;58.90;102919.16;5051001;28;8765;-65
2021/12/20 06:08:15;;;;;;;;;0.00;0.00;;;;;17.85;58.60;102919.16;5051301;28;8812;-65
2021/12/20 06:10:41;;;;;;;;;0.67;0.67;;;;;17.83;58.93;102921.78;5050282;28;8770;-64
2021/12/20 06:13:06;;;;;;;;;0.00;0.00;;;;;17.86;58.89;102927.13;5051081;28;9485;-65
2021/12/20 06:15:32;;;;;;;;;0.67;0.67;;;;;17.82;59.14;102925.25;5050956;28;8777;-65
2021/12/20 06:17:58;;;;;;;;;0.00;0.00;;;;;17.83;59.13;102918.25;5050257;28;8773;-65
2021/12/20 06:20:23;;;;;;;;;0.00;0.00;;;;;17.85;58.87;102927.97;5050928;28;8820;-65
2021/12/20 06:22:48;;;;;;;;;0.33;0.33;;;;;17.78;59.18;102915.47;5050736;28;11425;-65
2021/12/20 06:25:14;;;;;;;;;1.00;1.00;;;;;17.84;59.02;102925.31;5050423;28;8758;-65
2021/12/20 06:27:40;;;;;;;;;1.00;0.00;;;;;17.84;58.89;102928.84;5050258;28;8774;-65
2021/12/20 06:30:10;;;;;;;;;1.00;0.00;;;;;17.88;58.87;102932.47;5051089;28;8770;-65
2021/12/20 06:32:37;;;;;;;;;0.67;0.67;;;;;17.86;58.66;102926.22;5050233;28;12211;-66
2021/12/20 06:35:03;;;;;;;;;1.00;0.00;;;;;17.72;58.62;102907.41;5050605;28;8886;-66
2021/12/20 06:37:30;;;;;;;;;0.33;0.33;;;;;17.83;58.67;102931.44;5050270;28;8882;-65
2021/12/20 06:39:59;;;;;;;;;0.33;0.33;;;;;17.84;58.74;102934.13;5050677;28;8947;-66
2021/12/20 06:42:24;;;;;;;;;0.00;0.00;;;;;17.84;58.94;102926.22;5050854;28;8854;-65
2021/12/20 06:44:49;;;;;;;;;1.00;1.00;;;;;17.82;58.87;102924.38;5049865;28;8986;-65
2021/12/20 06:47:16;;;;;;;;;0.00;0.00;;;;;17.85;58.96;102930.63;5050873;28;8796;-65
2021/12/20 06:49:42;;;;;;;;;0.00;0.00;;;;;17.78;58.86;102928.69;5050523;28;8827;-64
2021/12/20 06:52:08;;;;;;;;;0.00;0.00;;;;;17.81;59.29;102927.84;5050251;28;8854;-65
2021/12/20 06:54:33;;;;;;;;;0.50;0.50;;;;;17.85;59.30;102924.44;5050694;28;8780;-65
2021/12/20 06:56:59;;;;;;;;;1.00;1.00;;;;;17.78;59.70;102917.22;5049988;28;8806;-64
2021/12/20 06:59:24;;;;;;;;;3.00;2.00;;;;;17.90;60.04;102929.84;5049815;28;8800;-65
2021/12/20 07:01:49;;;;;;;;;5.67;1.00;;;;;17.91;60.69;102936.94;5050379;28;8920;-64
2021/12/20 07:04:15;;;;;;;;;3.33;2.00;;;;;17.96;61.21;102944.09;5050535;28;8769;-65
2021/12/20 07:06:41;;;;;;;;;1.67;1.33;;;;;17.96;61.88;102933.53;5049756;28;8916;-64
2021/12/20 07:09:07;;;;;;;;;2.00;1.00;;;;;17.95;62.25;102929.13;5050406;28;8778;-64
2021/12/20 07:11:33;;;;;;;;;6.00;3.33;;;;;17.97;62.99;102927.38;5050627;28;9006;-65
2021/12/20 07:13:58;;;;;;;;;3.33;2.33;;;;;18.04;63.56;102942.53;5049396;28;8781;-65
2021/12/20 07:16:24;;;;;;;;;2.00;1.33;;;;;18.02;64.06;102936.34;5050504;28;8785;-65
2021/12/20 07:18:49;;;;;;;;;4.33;3.00;;;;;18.05;64.32;102939.03;5050143;28;8786;-64
2021/12/20 07:21:15;;;;;;;;;5.00;4.00;;;;;18.05;64.66;102941.69;5049602;28;8851;-65
2021/12/20 07:23:41;;;;;;;;;5.33;4.00;;;;;18.04;64.75;102933.72;5041855;28;8806;-65
2021/12/20 07:26:10;;;;;;;;;3.33;3.33;;;;;18.06;64.88;102937.31;5048969;28;11519;-64
2021/12/20 07:28:36;;;;;;;;;2.67;2.00;;;;;18.02;65.26;102931.06;5048022;28;8837;-64
2021/12/20 07:31:01;;;;;;;;;3.00;3.00;;;;;18.03;65.48;102942.53;5048840;28;8963;-64
2021/12/20 07:33:27;;;;;;;;;4.00;2.67;;;;;18.03;65.07;102940.78;5049206;28;8859;-65
2021/12/20 07:35:52;;;;;;;;;4.67;3.67;;;;;18.02;65.49;102941.63;5034830;28;8823;-64
2021/12/20 07:38:18;;;;;;;;;6.33;3.33;;;;;18.02;65.51;102940.72;5028737;28;8779;-64
2021/12/20 07:40:45;;;;;;;;;2.00;2.00;;;;;18.01;65.23;102934.53;5030402;28;8796;-64
2021/12/20 07:43:14;;;;;;;;;2.33;2.00;;;;;18.02;65.52;102944.25;5032982;28;10509;-65
2021/12/20 07:45:39;;;;;;;;;4.00;4.00;;;;;18.01;65.36;102945.13;5032478;28;9158;-65
2021/12/20 07:48:05;;;;;;;;;2.00;1.00;;;;;18.01;65.21;102941.56;5031835;28;9052;-64
2021/12/20 07:50:36;;;;;;;;;5.00;3.00;;;;;17.96;65.76;102941.44;5032471;28;8788;-64
2021/12/20 07:53:04;;;;;;;;;4.67;3.00;;;;;17.97;65.33;102945.88;5031539;28;8768;-65
2021/12/20 07:55:29;;;;;;;;;2.33;2.00;;;;;17.99;65.36;102946.84;5027719;28;8885;-65
2021/12/20 07:57:55;;;;;;;;;2.67;2.00;;;;;17.99;65.39;102948.59;5031626;28;9127;-65
2021/12/20 08:00:20;;;;;;;;;4.00;2.00;;;;;17.98;65.31;102954.72;5032722;28;8820;-64
2021/12/20 08:02:47;;;;;;;;;2.67;2.67;;;;;17.96;65.33;102962.59;5031509;28;8889;-64
2021/12/20 08:05:15;;;;;;;;;2.33;2.33;;;;;17.98;65.27;102957.38;5032535;28;8794;-64
2021/12/20 08:07:41;;;;;;;;;2.00;1.00;;;;;17.96;65.22;102964.38;5031726;28;9124;-65
2021/12/20 08:10:08;;;;;;;;;1.00;1.00;;;;;17.94;65.21;102951.09;5031902;28;8949;-65
2021/12/20 08:12:35;;;;;;;;;4.00;2.00;;;;;17.96;65.36;102959.09;5032900;28;9009;-64
2021/12/20 08:15:00;;;;;;;;;0.33;0.33;;;;;17.95;65.10;102957.28;5032749;28;9041;-64
2021/12/20 08:17:28;;;;;;;;;3.00;2.00;;;;;17.95;65.01;102966.13;5032030;28;9009;-64
2021/12/20 08:19:54;;;;;;;;;0.67;0.67;;;;;17.95;65.17;102957.28;5013754;28;8798;-64
2021/12/20 08:22:24;;;;;;;;;2.00;2.00;;;;;17.91;64.84;102966.91;5019903;28;8987;-64
2021/12/20 08:24:49;;;;;;;;;2.00;1.00;;;;;17.94;64.99;102977.53;5028797;28;8803;-65
2021/12/20 08:27:14;;;;;;;;;2.00;2.00;;;;;17.88;64.93;102972.09;5032151;28;9036;-63
2021/12/20 08:29:39;;;;;;;;;2.33;1.33;;;;;17.93;64.82;102974.84;5032577;28;8780;-65
2021/12/20 08:32:05;;;;;;;;;0.67;0.67;;;;;17.93;64.58;102982.78;5030467;28;8811;-64
2021/12/20 08:34:31;;;;;;;;;1.67;1.67;;;;;17.95;64.42;102987.25;5038537;28;8813;-64
2021/12/20 08:36:59;;;;;;;;;2.00;2.00;;;;;17.95;64.56;102983.72;5071097;28;8809;-63
2021/12/20 08:39:24;;;;;;;;;3.00;1.33;;;;;17.94;64.45;102982.81;5072625;28;9037;-63
2021/12/20 08:41:49;;;;;;;;;2.00;2.00;;;;;17.92;64.15;102984.50;5071664;28;9808;-64
2021/12/20 08:44:15;;;;;;;;;1.00;1.00;;;;;17.89;64.48;102973.88;5069797;28;10239;-64
2021/12/20 08:46:40;;;;;;;;;2.33;1.33;;;;;17.95;64.38;102983.72;5072414;28;8851;-63
2021/12/20 08:49:06;;;;;;;;;1.67;1.00;;;;;17.92;64.31;102973.06;5071639;28;8796;-64
2021/12/20 08:51:36;;;;;;;;;1.00;1.00;;;;;17.94;64.24;102984.56;5071355;28;8802;-64
2021/12/20 08:54:01;;;;;;;;;1.67;1.67;;;;;17.94;64.09;102982.81;5070241;28;9059;-64
2021/12/20 08:56:27;;;;;;;;;3.00;2.67;;;;;17.93;63.88;102978.38;5051836;28;9066;-65
2021/12/20 08:58:52;;;;;;;;;1.00;1.00;;;;;17.92;63.81;102979.22;5050940;28;8895;-64
2021/12/20 09:01:18;;;;;;;;;1.67;1.00;;;;;17.92;63.10;102988.94;5051279;28;8842;-64
2021/12/20 09:03:44;;;;;;;;;1.33;1.00;;;;;17.92;63.34;102989.81;5051203;28;8791;-63
2021/12/20 09:06:10;;;;;;;;;2.00;2.00;;;;;17.90;62.91;102986.25;5067396;28;8893;-64
2021/12/20 09:08:38;;;;;;;;;2.00;1.00;;;;;17.91;62.62;102998.59;5071557;28;9602;-65
2021/12/20 09:11:04;;;;;;;;;1.00;1.00;;;;;17.90;62.46;102994.16;5071438;28;9791;-63
2021/12/20 09:13:29;;;;;;;;;1.67;1.67;;;;;17.90;62.47;102999.44;5071216;28;8977;-64
2021/12/20 09:15:59;;;;;;;;;1.00;1.00;;;;;17.88;62.15;102990.59;5054164;28;9559;-64
2021/12/20 09:18:25;;;;;;;;;1.00;1.00;;;;;17.88;62.09;102987.06;5051263;28;9998;-64
2021/12/20 09:20:54;;;;;;;;;1.33;1.33;;;;;17.88;62.05;102991.47;5050078;28;10029;-65
2021/12/20 09:23:20;;;;;;;;;0.00;0.00;;;;;17.92;61.84;102995.09;5051495;28;9912;-66
2021/12/20 09:25:46;;;;;;;;;1.00;1.00;;;;;17.94;61.63;102996.03;5063947;28;9035;-64
2021/12/20 09:28:14;;;;;;;;;2.00;1.00;;;;;17.89;61.53;102981.78;5070813;28;8770;-66
2021/12/20 09:30:43;;;;;;;;;1.00;1.00;;;;;17.94;61.65;102997.78;5071043;28;8894;-65
2021/12/20 09:33:12;;;;;;;;;1.00;1.00;;;;;17.92;61.23;102994.22;5070955;28;8927;-65
2021/12/20 09:35:38;;;;;;;;;1.67;0.67;;;;;17.93;61.34;102996.88;5044255;28;8926;-64
2021/12/20 09:38:10;;;;;;;;;2.00;0.67;;;;;17.95;61.46;103002.22;5031219;28;8943;-63
2021/12/20 09:40:39;;;;;;;;;1.00;1.00;;;;;17.92;61.25;103000.38;5030412;28;8906;-66
2021/12/20 09:43:08;;;;;;;;;1.00;1.00;;;;;17.92;60.98;102989.81;5031623;28;8902;-66
2021/12/20 09:45:34;;;;;;;;;1.67;0.67;;;;;17.96;61.05;102993.44;5029665;28;8880;-66
2021/12/20 09:47:59;;;;;;;;;1.00;0.00;;;;;17.95;61.01;103000.47;5029745;28;8997;-65
2021/12/20 09:50:26;;;;;;;;;1.00;0.67;;;;;17.97;60.64;103001.41;5031445;28;8776;-65
2021/12/20 09:52:52;;;;;;;;;3.33;1.67;;;;;17.98;60.70;103004.94;5028940;28;9579;-66
2021/12/20 09:55:17;;;;;;;;;0.00;0.00;;;;;17.98;60.64;103005.84;5038531;28;8944;-66
2021/12/20 09:57:45;;;;;;;;;0.00;0.00;;;;;17.98;60.48;103005.84;5030495;28;10933;-64
2021/12/20 10:00:13;;;;;;;;;0.00;0.00;;;;;17.99;60.34;103002.34;5031339;28;8862;-65
2021/12/20 10:02:38;;;;;;;;;1.67;0.67;;;;;17.99;60.35;102996.16;5048375;28;9041;-65
2021/12/20 10:05:04;;;;;;;;;0.00;0.00;;;;;17.99;60.52;102998.81;5048223;28;9029;-65
2021/12/20 10:07:29;;;;;;;;;0.00;0.00;;;;;17.96;60.43;102996.97;5050985;28;8793;-65
2021/12/20 10:09:55;;;;;;;;;1.67;1.00;;;;;17.96;60.49;102999.59;5049999;28;8782;-66
2021/12/20 10:12:24;;;;;;;;;1.67;0.67;;;;;17.98;60.29;103004.94;5039330;28;8922;-65
2021/12/20 10:15:10;;;;;;;;;1.00;1.00;;;;;17.99;60.39;103004.09;5035860;28;8858;-65
2021/12/20 10:17:55;;;;;;;;;1.00;1.00;;;;;17.97;60.65;103004.03;5049202;28;8856;-65
2021/12/20 10:20:24;;;;;;;;;0.00;0.00;;;;;17.95;60.54;103008.41;5050624;28;8879;-65
2021/12/20 10:22:50;;;;;;;;;2.67;0.00;;;;;17.95;60.62;103004.88;5049451;28;9689;-64
2021/12/20 10:25:21;;;;;;;;;1.00;1.00;;;;;17.97;60.72;103013.72;5049271;28;8963;-65
2021/12/20 10:27:47;;;;;;;;;1.00;0.00;;;;;17.96;60.66;103006.66;5050211;28;9716;-65
2021/12/20 10:30:22;;;;;;;;;1.00;1.00;;;;;17.97;60.74;103008.44;5049908;28;8909;-65
2021/12/20 10:32:47;;;;;;;;;0.00;0.00;;;;;17.85;60.35;102988.75;5049247;28;9557;-64
2021/12/20 10:35:24;;;;;;;;;0.00;0.00;;;;;17.97;60.59;103014.59;5056247;28;8977;-64
2021/12/20 10:37:50;;;;;;;;;1.25;0.00;;;;;17.93;60.77;103002.16;5068063;28;8825;-65
2021/12/20 10:40:15;;;;;;;;;0.00;0.00;;;;;17.95;60.61;103000.47;5070304;28;8817;-64
2021/12/20 10:42:44;;;;;;;;;0.00;0.00;;;;;17.95;60.71;103002.22;5069885;28;8791;-65
2021/12/20 10:45:13;;;;;;;;;1.00;0.00;;;;;17.98;60.70;103007.56;5057399;28;8826;-64
2021/12/20 10:47:42;;;;;;;;;1.00;1.00;;;;;17.97;60.66;103017.25;5050396;28;8945;-63
2021/12/20 10:50:28;;;;;;;;;0.00;0.00;;;;;17.97;60.73;103017.25;5050355;28;8944;-65
2021/12/20 10:53:12;;;;;;;;;1.00;1.00;;;;;17.98;60.77;103004.94;5049270;28;9027;-64
2021/12/20 10:55:45;;;;;;;;;0.75;0.00;;;;;17.99;60.70;103012.03;5049034;28;8950;-64
2021/12/20 10:58:29;;;;;;;;;1.33;0.00;;;;;17.97;60.86;103011.97;5048480;28;8873;-64
2021/12/20 11:01:06;;;;;;;;;0.00;0.00;;;;;17.97;61.00;103013.72;5049385;28;9849;-63
2021/12/20 11:03:37;;;;;;;;;2.00;2.00;;;;;17.99;60.67;102993.50;5050461;28;8772;-63
2021/12/20 11:09:05;;;;;;;;;1.25;1.25;;;;;18.00;60.72;103009.41;5049962;28;9059;-63
2021/12/20 11:11:41;;;;;;;;;1.33;1.33;;;;;18.00;60.49;103005.84;5050357;28;8926;-63
2021/12/20 11:14:09;;;;;;;;;2.00;1.00;;;;;18.00;60.56;103006.75;5050283;28;9774;-63
2021/12/20 11:16:39;;;;;;;;;2.00;2.00;;;;;17.99;60.84;102998.81;5053551;28;8943;-63
2021/12/20 11:19:08;;;;;;;;;2.00;1.00;;;;;17.99;60.67;103004.09;5053851;28;8920;-64
2021/12/20 11:21:38;;;;;;;;;2.67;2.67;;;;;17.99;60.60;102998.81;5053901;28;9697;-63
2021/12/20 11:24:18;;;;;;;;;1.00;1.00;;;;;18.00;60.66;102997.91;5053734;28;9000;-65
2021/12/20 11:26:45;;;;;;;;;1.00;1.00;;;;;17.98;60.58;102999.66;5052601;28;8886;-62
2021/12/20 11:29:11;;;;;;;;;1.00;1.00;;;;;17.99;60.66;102999.69;5054078;28;8967;-62
2021/12/20 11:31:39;;;;;;;;;1.00;1.00;;;;;18.00;60.51;103001.47;5053865;28;9100;-62
2021/12/20 11:34:05;;;;;;;;;1.00;1.00;;;;;18.03;60.42;102990.09;5053025;28;8792;-62
2021/12/20 11:36:32;;;;;;;;;1.75;1.75;;;;;17.99;60.28;102986.50;5035063;28;9017;-63
2021/12/20 11:39:03;;;;;;;;;0.00;0.00;;;;;18.03;60.59;102991.00;5033770;28;8894;-66
2021/12/20 11:41:30;;;;;;;;;1.00;1.00;;;;;18.04;60.40;102983.94;5033392;28;8926;-64
2021/12/20 11:43:57;;;;;;;;;2.00;2.00;;;;;18.07;60.30;102984.91;5033854;28;8923;-63
2021/12/20 11:46:31;;;;;;;;;1.00;1.00;;;;;18.05;60.04;102976.06;5033844;28;8767;-64
2021/12/20 11:48:57;;;;;;;;;0.00;0.00;;;;;18.04;60.39;102973.34;5032522;28;8871;-64